Ufo 3 — IUNV — position and weather

sailwx.info

Track history (hours):
 
Tides and Currents Weather Stations Pressure Air Temp Water Temp Dewpoint Dewpoint Depression Visibility Wind Speed Wind Dir Waves Ship Positions

Ufo 3

Last reported at 2018-Apr-20 14:27 UTC. Time now 2018-Apr-20 14:40 UTC.
Position N 44°03' E 009°50'.

Length 28 m.

Type: Passenger vessel. MMSI: 247031600.

Date/timePositionNaut miles runAvg speedWind from/ knotsBaromVisibWave heightAir tempDewpointWater temp
2018-Apr-20 14:27N 44°03' E 009°50'0 0.0
2018-Apr-20 14:00N 44°03' E 009°50'2 4.8
2018-Apr-20 13:30N 44°04' E 009°47'4 7.8
2018-Apr-20 13:00N 44°07' E 009°43'3 1.1
2018-Apr-20 10:12N 44°08' E 009°39'2 5.1
2018-Apr-20 09:54N 44°08' E 009°41'3 6.8
2018-Apr-20 09:29N 44°06' E 009°44'510.7
2018-Apr-20 09:00N 44°03' E 009°50'3 6.8
2018-Apr-20 08:30N 44°04' E 009°55'1 1.6
2018-Apr-20 08:00N 44°04' E 009°54'3 5.2
2018-Apr-20 07:30N 44°03' E 009°50'0 0.0
2018-Apr-20 07:00N 44°03' E 009°50'0 0.0
2018-Apr-20 06:29N 44°03' E 009°50'0 0.0
2018-Apr-20 06:00N 44°03' E 009°50'0 0.0
2018-Apr-20 05:30N 44°03' E 009°50'0 0.0
2018-Apr-20 05:00N 44°03' E 009°50'0 0.0
2018-Apr-20 04:29N 44°03' E 009°50'0 0.0
2018-Apr-20 04:00N 44°03' E 009°50'0 0.0
2018-Apr-20 03:30N 44°03' E 009°50'0 0.0
2018-Apr-20 03:00N 44°03' E 009°50'0 0.0
2018-Apr-19 16:36N 44°03' E 009°50'0 0.0
2018-Apr-19 16:30N 44°03' E 009°50'714.4
2018-Apr-19 16:00N 44°07' E 009°41'0 0.7
2018-Apr-19 15:30N 44°07' E 009°41'715.2
2018-Apr-19 15:01N 44°03' E 009°50'0 0.1
2018-Apr-19 14:31N 44°03' E 009°50'0 0.0
2018-Apr-19 14:01N 44°03' E 009°50'1 2.0
2018-Apr-19 13:30N 44°02' E 009°51'1 2.0
2018-Apr-19 13:00N 44°03' E 009°50'0 0.0
2018-Apr-19 12:31N 44°03' E 009°50'0 0.0
2018-Apr-19 12:00N 44°03' E 009°50'0 0.0
2018-Apr-19 11:30N 44°03' E 009°50'0 0.0
2018-Apr-19 11:00N 44°03' E 009°50'1 2.2
2018-Apr-19 10:31N 44°02' E 009°51'1 2.1
2018-Apr-19 10:00N 44°03' E 009°50'3 6.7
2018-Apr-19 09:30N 44°04' E 009°55'1 1.6
2018-Apr-19 09:00N 44°04' E 009°54'3 5.3
2018-Apr-19 08:30N 44°03' E 009°50'0 0.0
2018-Apr-19 08:01N 44°03' E 009°50'3 6.8
2018-Apr-19 07:30N 44°04' E 009°55'0 0.6
2018-Apr-19 07:00N 44°04' E 009°54'3 0.2
2018-Apr-18 13:57N 44°03' E 009°51'3 6.5
2018-Apr-18 13:30N 44°06' E 009°50'3 5.3
2018-Apr-18 13:00N 44°03' E 009°51'1 1.1
2018-Apr-18 12:30N 44°03' E 009°50'0 0.0
2018-Apr-18 12:00N 44°03' E 009°50'0 0.0
2018-Apr-18 11:31N 44°03' E 009°50'5 8.3
2018-Apr-18 10:51N 44°06' E 009°44'2 1.2
2018-Apr-18 09:20N 44°07' E 009°42'3 8.2
2018-Apr-18 09:00N 44°05' E 009°44'5 9.9
2018-Apr-18 08:30N 44°03' E 009°51'3 6.3
2018-Apr-18 08:00N 44°06' E 009°50'1 1.4
2018-Apr-18 07:30N 44°06' E 009°50'3 5.2
2018-Apr-18 07:00N 44°03' E 009°50'0 0.0
2018-Apr-18 06:30N 44°03' E 009°50'0 0.0
2018-Apr-18 06:00N 44°03' E 009°50'0 0.9
2018-Apr-18 05:30N 44°03' E 009°51'  
2018-Apr-15 13:03N 44°03' E 009°51'0 6.2
2018-Apr-15 13:00N 44°03' E 009°50'2 3.1
2018-Apr-15 12:30N 44°05' E 009°51'2 3.6
2018-Apr-15 12:00N 44°06' E 009°50'2 4.8
2018-Apr-15 11:30N 44°04' E 009°51'1 2.3
2018-Apr-15 11:00N 44°03' E 009°51'0 0.0
2018-Apr-15 10:30N 44°03' E 009°51'0 0.0
2018-Apr-15 10:00N 44°03' E 009°51'0 0.6
2018-Apr-15 09:30N 44°03' E 009°50'0 0.0
2018-Apr-15 09:00N 44°03' E 009°50'5 7.8
2018-Apr-15 08:20N 44°06' E 009°44'4 9.3
2018-Apr-15 07:55N 44°08' E 009°40'2 5.3
2018-Apr-15 07:29N 44°07' E 009°42'7 0.5
2018-Apr-14 17:30N 44°03' E 009°50'715.1
2018-Apr-14 17:00N 44°06' E 009°41'4 7.4
2018-Apr-14 16:29N 44°09' E 009°37'4 5.8
2018-Apr-14 15:47N 44°07' E 009°42'2 5.7
2018-Apr-14 15:26N 44°06' E 009°44'512.0
2018-Apr-14 15:00N 44°03' E 009°50'0 0.0
2018-Apr-14 14:31N 44°03' E 009°50'0 0.0
2018-Apr-14 14:00N 44°03' E 009°50'2 4.7
2018-Apr-14 13:30N 44°04' E 009°47'7 6.5
2018-Apr-14 12:22N 44°08' E 009°39'0 0.4
2018-Apr-14 11:44N 44°09' E 009°39'0 0.2
2018-Apr-14 11:17N 44°09' E 009°39'2 4.8
2018-Apr-14 10:52N 44°07' E 009°41'2 5.5
2018-Apr-14 10:26N 44°06' E 009°44'512.1
2018-Apr-14 10:00N 44°03' E 009°50'2 3.8
2018-Apr-14 09:30N 44°05' E 009°51'1 2.8
2018-Apr-14 09:00N 44°06' E 009°50'0 0.0
2018-Apr-14 08:30N 44°06' E 009°50'3 5.7
2018-Apr-14 08:00N 44°04' E 009°51'1 1.8
2018-Apr-14 07:30N 44°03' E 009°50'0 0.0
2018-Apr-14 07:00N 44°03' E 009°50'0 0.0
2018-Apr-14 06:30N 44°03' E 009°50'0 0.0
2018-Apr-14 06:00N 44°03' E 009°50'0 0.0
2018-Apr-14 05:30N 44°03' E 009°50'0 0.0
2018-Apr-14 05:00N 44°03' E 009°50'0 0.0
2018-Apr-14 04:30N 44°03' E 009°50'0 0.0
2018-Apr-13 13:29N 44°03' E 009°51'0 1.0
2018-Apr-13 13:01N 44°03' E 009°50'0 0.0
2018-Apr-13 11:31N 44°03' E 009°50'0 0.0
2018-Apr-13 11:01N 44°03' E 009°50'0 0.0
2018-Apr-13 10:30N 44°03' E 009°50'0 0.0
2018-Apr-13 10:01N 44°03' E 009°50'0 0.0
2018-Apr-13 09:31N 44°03' E 009°50'0 0.3
2018-Apr-13 09:01N 44°03' E 009°50'3 5.2
2018-Apr-13 08:30N 44°04' E 009°54'3 5.7
2018-Apr-13 08:01N 44°03' E 009°50'3 6.2
2018-Apr-13 07:30N 44°04' E 009°54'3 5.6
2018-Apr-13 07:00N 44°03' E 009°51'0 0.0
2018-Apr-13 06:30N 44°03' E 009°51'0 0.0
2018-Apr-13 06:00N 44°03' E 009°51'  
Track history (hours):
 
Tides and Currents Weather Stations Pressure Air Temp Water Temp Dewpoint Dewpoint Depression Visibility Wind Speed Wind Dir Waves Ship Positions

Ufo 3

Last reported at 2018-Apr-20 14:27 UTC. Time now 2018-Apr-20 14:40 UTC.
Position N 44°03' E 009°50'.

Length 28 m.

Type: Passenger vessel. MMSI: 247031600.

Date/timePositionNaut miles runAvg speedWind from/ knotsBaromVisibWave heightAir tempDewpointWater temp
2018-Apr-20 14:27N 44°03' E 009°50'0 0.0
2018-Apr-20 14:00N 44°03' E 009°50'2 4.8
2018-Apr-20 13:30N 44°04' E 009°47'4 7.8
2018-Apr-20 13:00N 44°07' E 009°43'3 1.1
2018-Apr-20 10:12N 44°08' E 009°39'2 5.1
2018-Apr-20 09:54N 44°08' E 009°41'3 6.8
2018-Apr-20 09:29N 44°06' E 009°44'510.7
2018-Apr-20 09:00N 44°03' E 009°50'3 6.8
2018-Apr-20 08:30N 44°04' E 009°55'1 1.6
2018-Apr-20 08:00N 44°04' E 009°54'3 5.2
2018-Apr-20 07:30N 44°03' E 009°50'0 0.0
2018-Apr-20 07:00N 44°03' E 009°50'0 0.0
2018-Apr-20 06:29N 44°03' E 009°50'0 0.0
2018-Apr-20 06:00N 44°03' E 009°50'0 0.0
2018-Apr-20 05:30N 44°03' E 009°50'0 0.0
2018-Apr-20 05:00N 44°03' E 009°50'0 0.0
2018-Apr-20 04:29N 44°03' E 009°50'0 0.0
2018-Apr-20 04:00N 44°03' E 009°50'0 0.0
2018-Apr-20 03:30N 44°03' E 009°50'0 0.0
2018-Apr-20 03:00N 44°03' E 009°50'0 0.0
2018-Apr-19 16:36N 44°03' E 009°50'0 0.0
2018-Apr-19 16:30N 44°03' E 009°50'714.4
2018-Apr-19 16:00N 44°07' E 009°41'0 0.7
2018-Apr-19 15:30N 44°07' E 009°41'715.2
2018-Apr-19 15:01N 44°03' E 009°50'0 0.1
2018-Apr-19 14:31N 44°03' E 009°50'0 0.0
2018-Apr-19 14:01N 44°03' E 009°50'1 2.0
2018-Apr-19 13:30N 44°02' E 009°51'1 2.0
2018-Apr-19 13:00N 44°03' E 009°50'0 0.0
2018-Apr-19 12:31N 44°03' E 009°50'0 0.0
2018-Apr-19 12:00N 44°03' E 009°50'0 0.0
2018-Apr-19 11:30N 44°03' E 009°50'0 0.0
2018-Apr-19 11:00N 44°03' E 009°50'1 2.2
2018-Apr-19 10:31N 44°02' E 009°51'1 2.1
2018-Apr-19 10:00N 44°03' E 009°50'3 6.7
2018-Apr-19 09:30N 44°04' E 009°55'1 1.6
2018-Apr-19 09:00N 44°04' E 009°54'3 5.3
2018-Apr-19 08:30N 44°03' E 009°50'0 0.0
2018-Apr-19 08:01N 44°03' E 009°50'3 6.8
2018-Apr-19 07:30N 44°04' E 009°55'0 0.6
2018-Apr-19 07:00N 44°04' E 009°54'3 0.2
2018-Apr-18 13:57N 44°03' E 009°51'3 6.5
2018-Apr-18 13:30N 44°06' E 009°50'3 5.3
2018-Apr-18 13:00N 44°03' E 009°51'1 1.1
2018-Apr-18 12:30N 44°03' E 009°50'0 0.0
2018-Apr-18 12:00N 44°03' E 009°50'0 0.0
2018-Apr-18 11:31N 44°03' E 009°50'5 8.3
2018-Apr-18 10:51N 44°06' E 009°44'2 1.2
2018-Apr-18 09:20N 44°07' E 009°42'3 8.2
2018-Apr-18 09:00N 44°05' E 009°44'5 9.9
2018-Apr-18 08:30N 44°03' E 009°51'3 6.3
2018-Apr-18 08:00N 44°06' E 009°50'1 1.4
2018-Apr-18 07:30N 44°06' E 009°50'3 5.2
2018-Apr-18 07:00N 44°03' E 009°50'0 0.0
2018-Apr-18 06:30N 44°03' E 009°50'0 0.0
2018-Apr-18 06:00N 44°03' E 009°50'0 0.9
2018-Apr-18 05:30N 44°03' E 009°51'  
2018-Apr-15 13:03N 44°03' E 009°51'0 6.2
2018-Apr-15 13:00N 44°03' E 009°50'2 3.1
2018-Apr-15 12:30N 44°05' E 009°51'2 3.6
2018-Apr-15 12:00N 44°06' E 009°50'2 4.8
2018-Apr-15 11:30N 44°04' E 009°51'1 2.3
2018-Apr-15 11:00N 44°03' E 009°51'0 0.0
2018-Apr-15 10:30N 44°03' E 009°51'0 0.0
2018-Apr-15 10:00N 44°03' E 009°51'0 0.6
2018-Apr-15 09:30N 44°03' E 009°50'0 0.0
2018-Apr-15 09:00N 44°03' E 009°50'5 7.8
2018-Apr-15 08:20N 44°06' E 009°44'4 9.3
2018-Apr-15 07:55N 44°08' E 009°40'2 5.3
2018-Apr-15 07:29N 44°07' E 009°42'7 0.5
2018-Apr-14 17:30N 44°03' E 009°50'715.1
2018-Apr-14 17:00N 44°06' E 009°41'4 7.4
2018-Apr-14 16:29N 44°09' E 009°37'4 5.8
2018-Apr-14 15:47N 44°07' E 009°42'2 5.7
2018-Apr-14 15:26N 44°06' E 009°44'512.0
2018-Apr-14 15:00N 44°03' E 009°50'0 0.0
2018-Apr-14 14:31N 44°03' E 009°50'0 0.0
2018-Apr-14 14:00N 44°03' E 009°50'2 4.7
2018-Apr-14 13:30N 44°04' E 009°47'7 6.5
2018-Apr-14 12:22N 44°08' E 009°39'0 0.4
2018-Apr-14 11:44N 44°09' E 009°39'0 0.2
2018-Apr-14 11:17N 44°09' E 009°39'2 4.8
2018-Apr-14 10:52N 44°07' E 009°41'2 5.5
2018-Apr-14 10:26N 44°06' E 009°44'512.1
2018-Apr-14 10:00N 44°03' E 009°50'2 3.8
2018-Apr-14 09:30N 44°05' E 009°51'1 2.8
2018-Apr-14 09:00N 44°06' E 009°50'0 0.0
2018-Apr-14 08:30N 44°06' E 009°50'3 5.7
2018-Apr-14 08:00N 44°04' E 009°51'1 1.8
2018-Apr-14 07:30N 44°03' E 009°50'0 0.0
2018-Apr-14 07:00N 44°03' E 009°50'0 0.0
2018-Apr-14 06:30N 44°03' E 009°50'0 0.0
2018-Apr-14 06:00N 44°03' E 009°50'0 0.0
2018-Apr-14 05:30N 44°03' E 009°50'0 0.0
2018-Apr-14 05:00N 44°03' E 009°50'0 0.0
2018-Apr-14 04:30N 44°03' E 009°50'0 0.0
2018-Apr-13 13:29N 44°03' E 009°51'0 1.0
2018-Apr-13 13:01N 44°03' E 009°50'0 0.0
2018-Apr-13 11:31N 44°03' E 009°50'0 0.0
2018-Apr-13 11:01N 44°03' E 009°50'0 0.0
2018-Apr-13 10:30N 44°03' E 009°50'0 0.0
2018-Apr-13 10:01N 44°03' E 009°50'0 0.0
2018-Apr-13 09:31N 44°03' E 009°50'0 0.3
2018-Apr-13 09:01N 44°03' E 009°50'3 5.2
2018-Apr-13 08:30N 44°04' E 009°54'3 5.7
2018-Apr-13 08:01N 44°03' E 009°50'3 6.2
2018-Apr-13 07:30N 44°04' E 009°54'3 5.6
2018-Apr-13 07:00N 44°03' E 009°51'0 0.0
2018-Apr-13 06:30N 44°03' E 009°51'0 0.0
2018-Apr-13 06:00N 44°03' E 009°51'  

Dump ship's entire track history